Time;durP1;ratioP1;P1;durP2;ratioP2;P2;SDS_P1;SDS_P2;PMS_P1;PMS_P2;Temp;Humidity;BMP_temperature;BMP_pressure;BME280_temperature;BME280_humidity;BME280_pressure;Samples;Min_cycle;Max_cycle;Signal;HPM_P1;HPM_P2
2023/03/30 00:01:03;;;;;;;1.70;1.60;;;;;;;7.93;44.37;95564.25;5013295;28;20795;-69
2023/03/30 00:03:30;;;;;;;2.05;1.85;;;;;;;7.92;44.72;95562.56;5010865;28;20350;-70
2023/03/30 00:06:03;;;;;;;3.05;2.05;;;;;;;7.81;45.12;95566.97;5013328;28;20326;-64
2023/03/30 00:08:32;;;;;;;1.48;1.38;;;;;;;7.71;44.73;95565.44;5011406;28;20701;-70
2023/03/30 00:11:04;;;;;;;1.88;1.70;;;;;;;7.78;45.85;95564.50;5011767;28;20687;-69
2023/03/30 00:13:32;;;;;;;2.05;1.85;;;;;;;7.84;44.92;95564.41;5013315;28;20259;-70
2023/03/30 00:16:00;;;;;;;2.90;2.08;;;;;;;7.85;45.31;95566.06;5012092;28;20639;-67
2023/03/30 00:18:28;;;;;;;1.38;1.27;;;;;;;7.75;45.33;95554.41;5012309;28;20212;-70
2023/03/30 00:20:55;;;;;;;1.38;1.27;;;;;;;7.81;45.60;95565.28;5010654;28;20208;-66
2023/03/30 00:23:22;;;;;;;1.20;1.20;;;;;;;7.90;45.92;95554.19;5011242;28;20235;-66
2023/03/30 00:25:49;;;;;;;1.45;1.35;;;;;;;8.01;45.10;95559.91;5010060;28;20208;-69
2023/03/30 00:28:16;;;;;;;1.85;1.40;;;;;;;7.91;45.31;95560.94;5012584;28;20349;-73
2023/03/30 00:30:42;;;;;;;1.77;1.67;;;;;;;7.91;46.42;95567.69;5013296;28;20208;-71
2023/03/30 00:33:10;;;;;;;4.07;1.65;;;;;;;7.86;45.92;95567.75;5009297;28;20293;-74
2023/03/30 00:35:37;;;;;;;1.83;1.42;;;;;;;7.91;46.16;95576.13;5010179;28;20274;-67
2023/03/30 00:38:04;;;;;;;2.20;1.70;;;;;;;7.88;45.88;95571.09;5009757;28;20786;-68
2023/03/30 00:40:32;;;;;;;1.88;1.52;;;;;;;7.89;46.70;95567.72;5011292;28;20264;-73
2023/03/30 00:43:00;;;;;;;2.92;1.52;;;;;;;7.95;47.18;95565.06;5007085;28;20700;-71
2023/03/30 00:45:29;;;;;;;1.70;1.60;;;;;;;7.81;47.75;95564.44;5010419;28;20214;-76
2023/03/30 00:48:00;;;;;;;2.20;2.00;;;;;;;7.82;48.69;95566.13;5007980;28;20204;-68
2023/03/30 00:50:34;;;;;;;2.88;1.98;;;;;;;7.67;48.62;95562.09;5010186;28;20212;-72
2023/03/30 00:53:05;;;;;;;1.80;1.60;;;;;;;7.60;49.48;95564.75;5010298;28;20233;-70
2023/03/30 00:55:35;;;;;;;2.53;2.33;;;;;;;7.62;50.12;95556.28;5009675;28;20220;-70
2023/03/30 00:58:02;;;;;;;1.75;1.65;;;;;;;7.57;50.48;95567.31;5012195;28;20231;-69
2023/03/30 01:00:29;;;;;;;1.65;1.55;;;;;;;7.53;50.86;95563.16;5010649;28;20369;-71
2023/03/30 01:03:00;;;;;;;4.72;1.75;;;;;;;7.61;50.44;95562.22;5010811;28;20626;-74
2023/03/30 01:05:29;;;;;;;2.55;1.92;;;;;;;7.66;50.37;95569.75;5009771;28;20440;-67
2023/03/30 01:07:57;;;;;;;1.67;1.30;;;;;;;7.58;50.56;95559.72;5012238;28;21558;-69
2023/03/30 01:10:24;;;;;;;1.90;1.80;;;;;;;7.56;50.38;95563.13;5010451;28;20204;-73
2023/03/30 01:12:51;;;;;;;2.05;1.95;;;;;;;7.52;50.61;95564.84;5011999;28;20342;-69
2023/03/30 01:15:19;;;;;;;2.55;1.90;;;;;;;7.44;50.49;95564.13;5009760;28;20263;-65
2023/03/30 01:18:03;;;;;;;2.90;1.50;;;;;;;7.40;51.08;95559.97;5010136;28;20742;-73
2023/03/30 01:21:08;;;;;;;1.98;1.88;;;;;;;7.45;51.54;95566.63;5011441;28;20454;-68
2023/03/30 01:24:23;;;;;;;2.05;1.80;;;;;;;7.40;51.15;95563.34;5010099;28;20278;-68
2023/03/30 01:26:54;;;;;;;2.35;1.50;;;;;;;7.33;51.41;95565.97;5010857;28;20795;-71
2023/03/30 01:29:33;;;;;;;2.28;1.50;;;;;;;7.32;51.94;95569.34;5009697;28;20373;-70
2023/03/30 01:32:24;;;;;;;3.58;1.58;;;;;;;7.22;52.12;95568.63;5009347;28;20269;-67
2023/03/30 01:35:29;;;;;;;1.65;1.55;;;;;;;7.15;52.56;95577.16;4998624;28;20327;-68
2023/03/30 01:38:17;;;;;;;2.30;1.33;;;;;;;7.09;53.11;95583.13;5009283;28;20247;-71
2023/03/30 01:40:52;;;;;;;1.48;1.38;;;;;;;7.04;52.82;95586.53;5008169;28;20295;-67
2023/03/30 01:43:27;;;;;;;2.20;2.10;;;;;;;6.97;53.32;95583.25;5009593;28;20245;-68
2023/03/30 01:45:58;;;;;;;1.75;1.65;;;;;;;6.94;52.58;95577.38;5009247;28;20636;-68
2023/03/30 01:48:32;;;;;;;1.75;1.65;;;;;;;6.85;53.67;95578.34;5008067;28;20308;-69
2023/03/30 01:51:03;;;;;;;2.22;1.65;;;;;;;6.68;53.59;95586.06;5008428;28;20227;-66
2023/03/30 01:53:37;;;;;;;1.60;1.50;;;;;;;6.66;53.74;95576.88;5006385;28;20304;-70
2023/03/30 01:56:11;;;;;;;2.85;1.45;;;;;;;6.65;53.75;95567.63;5008916;28;20321;-67
2023/03/30 01:58:44;;;;;;;5.00;1.50;;;;;;;6.58;54.02;95589.56;5005135;28;20340;-67
2023/03/30 02:01:13;;;;;;;2.83;1.88;;;;;;;6.64;54.52;95574.34;5009537;28;20749;-68
2023/03/30 02:03:44;;;;;;;5.22;1.95;;;;;;;6.69;54.29;95580.16;5007952;28;20223;-66
2023/03/30 02:06:19;;;;;;;2.67;1.77;;;;;;;6.75;53.84;95581.81;5009587;28;20295;-68
2023/03/30 02:08:50;;;;;;;2.00;1.90;;;;;;;6.76;54.76;95581.78;5008543;28;20211;-70
2023/03/30 02:11:18;;;;;;;4.57;2.33;;;;;;;6.87;53.67;95578.31;5010024;28;20864;-69
2023/03/30 02:13:46;;;;;;;1.80;1.70;;;;;;;6.92;53.41;95579.13;5010656;28;20686;-69
2023/03/30 02:16:16;;;;;;;2.47;1.90;;;;;;;6.87;54.01;95575.78;5008800;28;20238;-67
2023/03/30 02:18:43;;;;;;;2.92;2.20;;;;;;;6.87;53.37;95578.31;5010561;28;20234;-69
2023/03/30 02:21:11;;;;;;;2.20;1.88;;;;;;;6.90;53.87;95585.88;5007669;28;20207;-68
2023/03/30 02:23:42;;;;;;;2.35;1.83;;;;;;;6.68;54.77;95570.91;5009838;28;20729;-69
2023/03/30 02:26:10;;;;;;;1.63;1.52;;;;;;;6.75;55.08;95571.69;5009089;28;20204;-70
2023/03/30 02:28:39;;;;;;;1.98;1.73;;;;;;;6.94;54.46;95567.28;5010296;28;20676;-72
2023/03/30 02:31:12;;;;;;;2.83;1.90;;;;;;;7.05;55.12;95570.53;5010037;28;20239;-70
2023/03/30 02:33:50;;;;;;;2.95;1.90;;;;;;;7.08;54.89;95580.59;5009234;28;20752;-69
2023/03/30 02:36:46;;;;;;;4.25;1.95;;;;;;;7.02;54.95;95576.44;5011089;28;20303;-67
2023/03/30 02:39:29;;;;;;;2.33;1.95;;;;;;;6.92;56.26;95581.63;4977537;28;20233;-70
2023/03/30 02:42:19;;;;;;;2.03;1.67;;;;;;;6.94;56.76;95587.47;5009330;28;20204;-69
2023/03/30 02:44:57;;;;;;;2.58;2.38;;;;;;;7.04;56.70;95586.53;5010260;28;20206;-70
2023/03/30 02:47:31;;;;;;;2.83;1.83;;;;;;;7.06;56.10;95585.66;5010353;28;20204;-66
2023/03/30 02:50:04;;;;;;;1.92;1.75;;;;;;;7.02;57.08;95580.66;5008389;28;20206;-66
2023/03/30 02:52:44;;;;;;;2.47;2.30;;;;;;;7.00;57.04;95590.78;5010224;28;20669;-70
2023/03/30 02:55:18;;;;;;;4.00;2.00;;;;;;;7.05;57.33;95585.69;5007931;28;20256;-69
2023/03/30 02:57:55;;;;;;;2.38;1.92;;;;;;;7.11;57.44;95591.50;5009731;28;20235;-66
2023/03/30 03:00:28;;;;;;;2.83;1.83;;;;;;;7.12;56.77;95589.81;5007595;28;20239;-69
2023/03/30 03:02:59;;;;;;;2.40;2.30;;;;;;;7.12;57.79;95597.41;5009500;28;20314;-69
2023/03/30 03:05:28;;;;;;;2.45;1.95;;;;;;;7.10;57.40;95589.84;5010065;28;21102;-66
2023/03/30 03:07:55;;;;;;;2.10;2.00;;;;;;;7.13;57.23;95599.09;5009340;28;20290;-68
2023/03/30 03:10:23;;;;;;;2.40;2.20;;;;;;;7.08;57.74;95601.66;5010976;28;20270;-65
2023/03/30 03:12:50;;;;;;;2.30;2.15;;;;;;;7.05;58.09;95598.31;5009300;28;20231;-69
2023/03/30 03:15:16;;;;;;;2.22;2.13;;;;;;;7.00;58.08;95607.63;5008918;28;22013;-69
2023/03/30 03:17:45;;;;;;;2.20;2.00;;;;;;;6.98;58.96;95604.28;5010670;28;20232;-70
2023/03/30 03:20:12;;;;;;;2.72;2.55;;;;;;;6.91;58.92;95605.22;5010068;28;20719;-65
2023/03/30 03:22:39;;;;;;;2.65;2.45;;;;;;;6.96;59.96;95613.56;5009303;28;20214;-69
2023/03/30 03:25:07;;;;;;;3.20;2.90;;;;;;;6.93;59.96;95606.84;5008667;28;20247;-70
2023/03/30 03:27:34;;;;;;;2.40;2.30;;;;;;;6.94;60.29;95592.53;5009106;28;20982;-69
2023/03/30 03:30:01;;;;;;;4.55;1.90;;;;;;;7.09;59.66;95599.97;5009904;28;20208;-65
2023/03/30 03:32:28;;;;;;;2.40;2.20;;;;;;;7.05;59.90;95610.97;5012566;28;20249;-67
2023/03/30 03:34:56;;;;;;;4.85;2.42;;;;;;;7.01;60.55;95609.31;5009863;28;20285;-70
2023/03/30 03:37:22;;;;;;;2.78;2.45;;;;;;;6.81;60.90;95610.38;5007370;28;20291;-65
2023/03/30 03:39:49;;;;;;;2.55;2.35;;;;;;;6.85;61.56;95605.28;5009947;28;20308;-67
2023/03/30 03:42:16;;;;;;;4.00;2.70;;;;;;;6.80;61.81;95618.81;5007627;28;20211;-68
2023/03/30 03:44:42;;;;;;;2.25;2.15;;;;;;;6.85;61.69;95608.66;5009902;28;20291;-65
2023/03/30 03:47:12;;;;;;;2.78;2.58;;;;;;;6.95;61.90;95625.38;5009457;28;20244;-69
2023/03/30 03:49:38;;;;;;;2.85;2.45;;;;;;;6.90;62.25;95626.28;5009738;28;20204;-68
2023/03/30 03:52:06;;;;;;;2.50;2.30;;;;;;;6.86;62.41;95629.69;5008551;28;20249;-69
2023/03/30 03:54:33;;;;;;;2.83;2.60;;;;;;;6.87;62.76;95634.75;5008826;28;20309;-71
2023/03/30 03:57:00;;;;;;;4.57;2.30;;;;;;;6.81;62.74;95628.06;5009134;28;20417;-64
2023/03/30 03:59:27;;;;;;;2.78;2.63;;;;;;;6.86;62.92;95634.75;5009573;28;20204;-69
2023/03/30 04:01:54;;;;;;;2.60;2.40;;;;;;;6.79;62.51;95632.28;5007800;28;21447;-69
2023/03/30 04:04:21;;;;;;;3.05;2.72;;;;;;;6.91;62.91;95638.91;5009175;28;20239;-67
2023/03/30 04:06:47;;;;;;;2.33;2.13;;;;;;;6.94;62.50;95632.97;5008623;28;20204;-69
2023/03/30 04:09:18;;;;;;;4.03;2.47;;;;;;;7.01;62.59;95629.53;5009735;28;20232;-72
2023/03/30 04:11:44;;;;;;;2.70;2.50;;;;;;;7.09;61.94;95623.56;5009340;28;20693;-68
2023/03/30 04:14:11;;;;;;;3.10;2.63;;;;;;;7.05;62.93;95631.19;5012685;28;20333;-65
2023/03/30 04:16:38;;;;;;;3.20;2.65;;;;;;;7.05;63.16;95626.13;5012283;28;20314;-67
2023/03/30 04:19:04;;;;;;;3.40;2.65;;;;;;;7.03;63.47;95626.13;5012547;28;20243;-67
2023/03/30 04:21:31;;;;;;;3.42;2.58;;;;;;;7.16;64.00;95624.31;5013338;28;20216;-69
2023/03/30 04:24:00;;;;;;;4.80;3.88;;;;;;;7.08;63.77;95628.63;5011658;28;20304;-67
2023/03/30 04:26:29;;;;;;;5.60;3.58;;;;;;;7.04;64.26;95615.19;5011654;28;20223;-70
2023/03/30 04:28:55;;;;;;;6.15;3.10;;;;;;;7.14;63.55;95618.44;5012798;28;20203;-67
2023/03/30 04:31:22;;;;;;;3.15;2.75;;;;;;;7.11;63.19;95626.06;5016150;28;20233;-73
2023/03/30 04:33:51;;;;;;;4.93;3.05;;;;;;;7.06;63.43;95627.78;5010912;28;20207;-69
2023/03/30 04:36:19;;;;;;;4.93;4.28;;;;;;;7.10;63.39;95624.38;5013064;28;20220;-69
2023/03/30 04:38:58;;;;;;;3.72;3.00;;;;;;;7.17;62.93;95626.00;5011480;28;20266;-68
2023/03/30 04:41:32;;;;;;;3.28;2.97;;;;;;;7.11;63.59;95626.06;5013148;28;20301;-68
2023/03/30 04:44:01;;;;;;;7.18;3.03;;;;;;;7.12;63.04;95625.22;5013054;28;20227;-68
2023/03/30 04:46:28;;;;;;;3.47;3.17;;;;;;;7.21;62.82;95626.78;5012563;28;20722;-68
2023/03/30 04:48:55;;;;;;;3.35;3.10;;;;;;;7.12;62.89;95630.25;5013192;28;20277;-67
2023/03/30 04:51:21;;;;;;;2.88;2.67;;;;;;;7.12;63.30;95626.03;5012896;28;20717;-70
2023/03/30 04:53:48;;;;;;;3.95;3.00;;;;;;;7.13;62.84;95625.19;5011751;28;20258;-71
2023/03/30 04:56:15;;;;;;;7.07;3.35;;;;;;;7.08;63.12;95634.50;5012628;28;20310;-69
2023/03/30 04:58:43;;;;;;;3.75;3.45;;;;;;;7.20;61.83;95636.03;5011535;28;20243;-72
2023/03/30 05:01:10;;;;;;;5.40;3.80;;;;;;;7.33;61.90;95637.59;5012080;28;20270;-66
2023/03/30 05:03:36;;;;;;;11.20;8.63;;;;;;;7.29;62.32;95640.16;5012055;28;20315;-67
2023/03/30 05:06:04;;;;;;;9.52;4.18;;;;;;;7.39;61.08;95650.19;5012643;28;20331;-68
2023/03/30 05:08:31;;;;;;;5.28;3.67;;;;;;;7.55;60.72;95644.91;5013216;28;20763;-70
2023/03/30 05:11:01;;;;;;;4.45;3.55;;;;;;;7.36;61.39;95651.91;5012209;28;20291;-71
2023/03/30 05:13:28;;;;;;;5.35;3.58;;;;;;;7.31;61.52;95641.84;5013409;28;20696;-69
2023/03/30 05:15:57;;;;;;;4.57;3.97;;;;;;;7.43;61.78;95656.84;5010124;28;20335;-67
2023/03/30 05:18:24;;;;;;;4.53;3.05;;;;;;;7.47;61.54;95650.06;5012648;28;20298;-69
2023/03/30 05:20:50;;;;;;;4.78;3.58;;;;;;;7.54;61.53;95650.81;5012352;28;20294;-70
2023/03/30 05:23:17;;;;;;;4.80;4.40;;;;;;;7.44;61.43;95645.88;5012493;28;20649;-69
2023/03/30 05:25:45;;;;;;;10.90;7.03;;;;;;;7.49;61.97;95645.81;5010768;28;20231;-68
2023/03/30 05:28:12;;;;;;;7.43;4.75;;;;;;;7.26;62.95;95641.03;5012808;28;20234;-73
2023/03/30 05:30:38;;;;;;;8.25;5.07;;;;;;;7.22;62.81;95644.44;5011928;28;20773;-67
2023/03/30 05:33:08;;;;;;;5.72;5.00;;;;;;;7.20;62.97;95636.03;5012133;28;20300;-72
2023/03/30 05:35:35;;;;;;;12.38;5.32;;;;;;;7.33;62.88;95637.59;5010788;28;20235;-67
2023/03/30 05:38:02;;;;;;;18.00;5.15;;;;;;;7.62;62.75;95636.41;5012064;28;20242;-72
2023/03/30 05:40:29;;;;;;;10.10;4.07;;;;;;;7.78;62.44;95647.97;5011574;28;20297;-69
2023/03/30 05:42:56;;;;;;;5.80;5.28;;;;;;;7.92;62.36;95647.81;5011601;28;20212;-67
2023/03/30 05:45:23;;;;;;;9.00;5.93;;;;;;;8.07;62.37;95643.34;5009531;28;20307;-66
2023/03/30 05:47:50;;;;;;;10.73;6.53;;;;;;;8.17;61.77;95652.47;5011376;28;20417;-68
2023/03/30 05:50:18;;;;;;;8.98;7.03;;;;;;;8.16;61.82;95645.75;5011168;28;20654;-70
2023/03/30 05:52:45;;;;;;;15.05;9.52;;;;;;;8.19;62.30;95643.16;5011866;28;20307;-70
2023/03/30 05:55:12;;;;;;;10.95;7.10;;;;;;;8.35;62.04;95645.50;5011010;28;20235;-71
2023/03/30 05:57:39;;;;;;;5.47;4.97;;;;;;;8.30;61.23;95644.69;5011330;28;20234;-69
2023/03/30 06:00:09;;;;;;;8.00;5.00;;;;;;;8.40;61.64;95651.34;5009702;28;20239;-71
2023/03/30 06:02:35;;;;;;;11.85;5.45;;;;;;;8.41;61.53;95653.00;5011876;28;20290;-70
2023/03/30 06:05:03;;;;;;;9.52;4.85;;;;;;;8.32;61.94;95653.97;5010866;28;20235;-69
2023/03/30 06:07:31;;;;;;;4.57;3.97;;;;;;;8.26;61.80;95658.25;5011057;28;20207;-72
2023/03/30 06:10:00;;;;;;;8.70;4.30;;;;;;;8.20;61.92;95659.19;5010617;28;21575;-71
2023/03/30 06:12:27;;;;;;;4.20;3.90;;;;;;;8.06;62.32;95656.88;5013049;28;20203;-71
2023/03/30 06:14:53;;;;;;;6.43;5.20;;;;;;;7.98;62.97;95673.00;5010318;28;20849;-67
2023/03/30 06:17:20;;;;;;;5.53;5.03;;;;;;;8.18;62.54;95671.88;5010723;28;20315;-70
2023/03/30 06:19:47;;;;;;;6.57;4.88;;;;;;;8.35;62.35;95676.72;5011620;28;20204;-68
2023/03/30 06:22:14;;;;;;;6.50;5.90;;;;;;;8.46;61.36;95661.34;5011329;28;20874;-72
2023/03/30 06:24:42;;;;;;;8.32;6.13;;;;;;;8.43;61.28;95677.44;5011007;28;20203;-73
2023/03/30 06:27:09;;;;;;;8.25;5.60;;;;;;;8.36;61.81;95675.03;5010134;28;20282;-65
2023/03/30 06:29:35;;;;;;;5.45;4.93;;;;;;;8.26;61.40;95674.28;5010563;28;20294;-69
2023/03/30 06:32:03;;;;;;;8.45;4.78;;;;;;;8.16;62.57;95676.16;5010311;28;20309;-69
2023/03/30 06:34:30;;;;;;;8.32;4.88;;;;;;;8.17;61.82;95677.78;5009988;28;20634;-72
2023/03/30 06:36:57;;;;;;;7.75;4.53;;;;;;;8.22;62.08;95676.88;5009556;28;20717;-71
2023/03/30 06:39:24;;;;;;;6.55;4.32;;;;;;;8.44;61.16;95683.34;5011747;28;20232;-69
2023/03/30 06:41:52;;;;;;;6.63;4.80;;;;;;;8.71;60.80;95672.75;5009852;28;20678;-70
2023/03/30 06:44:19;;;;;;;7.35;5.13;;;;;;;8.91;60.39;95676.69;5010002;28;20330;-66
2023/03/30 06:46:46;;;;;;;8.63;5.95;;;;;;;9.04;59.13;95680.66;5010014;28;20322;-65
2023/03/30 06:49:13;;;;;;;7.05;5.90;;;;;;;9.16;59.07;95676.19;5010653;28;20305;-69
2023/03/30 06:51:40;;;;;;;15.65;6.63;;;;;;;9.27;58.47;95678.53;5009901;28;20231;-71
2023/03/30 06:54:07;;;;;;;7.68;6.78;;;;;;;9.19;58.59;95691.34;5008644;28;20209;-72
2023/03/30 06:56:34;;;;;;;20.88;7.43;;;;;;;9.21;58.90;95688.78;5009908;28;20772;-67
2023/03/30 06:59:02;;;;;;;29.08;8.85;;;;;;;9.42;58.21;95683.31;5010016;28;20619;-68
2023/03/30 07:01:28;;;;;;;12.60;6.85;;;;;;;9.68;57.87;95674.34;5010570;28;20299;-71
2023/03/30 07:03:55;;;;;;;12.48;6.78;;;;;;;10.14;56.39;95679.31;5011011;28;20310;-71
2023/03/30 07:06:23;;;;;;;18.58;8.10;;;;;;;10.36;55.11;95672.09;5009338;28;20333;-71
2023/03/30 07:08:49;;;;;;;14.80;6.63;;;;;;;10.60;54.38;95691.00;5010647;28;20212;-67
2023/03/30 07:11:16;;;;;;;14.90;5.85;;;;;;;10.63;54.51;95679.06;5009884;28;21471;-66
2023/03/30 07:13:43;;;;;;;10.35;5.55;;;;;;;10.83;53.61;95678.56;5009834;28;20710;-67
2023/03/30 07:16:11;;;;;;;8.75;5.75;;;;;;;11.17;52.10;95687.00;5010965;28;20315;-68
2023/03/30 07:18:37;;;;;;;15.15;9.05;;;;;;;11.75;51.22;95689.69;5009436;28;20317;-68
2023/03/30 07:21:04;;;;;;;8.70;5.82;;;;;;;12.23;49.88;95692.56;5010475;28;20319;-68
2023/03/30 07:23:31;;;;;;;10.07;5.53;;;;;;;12.21;49.10;95687.50;5009018;28;20369;-68
2023/03/30 07:25:58;;;;;;;22.17;11.02;;;;;;;12.23;49.47;95688.31;5008403;28;20314;-69
2023/03/30 07:28:25;;;;;;;16.83;8.60;;;;;;;12.31;49.41;95684.69;5009813;28;20226;-69
2023/03/30 07:30:51;;;;;;;7.15;6.05;;;;;;;12.55;48.40;95689.88;5010201;28;20218;-68
2023/03/30 07:33:20;;;;;;;14.05;7.05;;;;;;;12.79;48.36;95688.25;5009830;28;20219;-70
2023/03/30 07:35:48;;;;;;;8.65;4.65;;;;;;;12.97;46.81;95688.53;5009281;28;20203;-72
2023/03/30 07:38:15;;;;;;;8.02;6.00;;;;;;;13.22;46.50;95689.41;5010336;28;20204;-69
2023/03/30 07:40:42;;;;;;;5.85;5.35;;;;;;;13.99;45.37;95687.53;5009405;28;20322;-66
2023/03/30 07:43:08;;;;;;;12.13;6.63;;;;;;;14.72;43.46;95683.03;5010067;28;20210;-66
2023/03/30 07:45:35;;;;;;;17.75;9.38;;;;;;;15.57;41.39;95679.50;5008547;28;20277;-69
2023/03/30 07:48:02;;;;;;;10.38;6.40;;;;;;;16.29;39.83;95673.72;5013944;28;20345;-70
2023/03/30 07:50:30;;;;;;;9.13;5.70;;;;;;;17.20;37.90;95668.50;5011803;28;20211;-71
2023/03/30 07:52:57;;;;;;;7.90;5.38;;;;;;;17.70;36.48;95675.44;5013875;28;20621;-66
2023/03/30 07:55:24;;;;;;;8.48;6.38;;;;;;;17.34;36.57;95674.59;5012725;28;20946;-70
2023/03/30 07:57:51;;;;;;;11.93;5.38;;;;;;;16.85;37.35;95672.78;5013289;28;20224;-69
2023/03/30 08:00:20;;;;;;;7.57;5.40;;;;;;;16.96;37.20;95670.56;5013928;28;20290;-70
2023/03/30 08:02:47;;;;;;;12.73;8.63;;;;;;;19.72;33.87;95676.19;5013672;28;20292;-70
2023/03/30 08:05:16;;;;;;;13.25;7.78;;;;;;;23.58;27.15;95668.16;5013148;28;20644;-69
2023/03/30 08:07:44;;;;;;;9.75;7.75;;;;;;;24.20;25.98;95659.94;5014384;28;20207;-72
2023/03/30 08:10:12;;;;;;;10.35;8.63;;;;;;;23.29;26.81;95661.69;5014221;28;20365;-69
2023/03/30 08:12:39;;;;;;;9.15;5.53;;;;;;;22.42;27.36;95659.41;5013194;28;20203;-67
2023/03/30 08:15:06;;;;;;;5.70;5.30;;;;;;;20.61;29.40;95654.31;5012636;28;20258;-70
2023/03/30 08:17:33;;;;;;;7.30;5.65;;;;;;;18.29;33.17;95657.66;5013106;28;20231;-67
2023/03/30 08:20:00;;;;;;;7.20;5.13;;;;;;;17.59;34.79;95661.34;5013029;28;20674;-69
2023/03/30 08:22:27;;;;;;;6.88;4.97;;;;;;;17.46;35.65;95655.19;5012979;28;20207;-70
2023/03/30 08:24:55;;;;;;;6.15;5.65;;;;;;;17.29;36.23;95655.22;5012491;28;20298;-70
2023/03/30 08:27:22;;;;;;;29.95;18.77;;;;;;;17.79;35.78;95662.09;5012476;28;20263;-70
2023/03/30 08:29:49;;;;;;;21.10;10.10;;;;;;;18.54;34.53;95656.31;5013698;28;20746;-70
2023/03/30 08:32:16;;;;;;;11.60;6.55;;;;;;;19.54;32.77;95658.31;5012443;28;20677;-67
2023/03/30 08:34:43;;;;;;;6.38;4.85;;;;;;;20.70;30.91;95648.56;5013581;28;20677;-69
2023/03/30 08:37:10;;;;;;;5.07;4.35;;;;;;;23.12;27.45;95643.97;5013286;28;20321;-67
2023/03/30 08:39:37;;;;;;;4.28;3.88;;;;;;;24.37;25.05;95636.06;5014070;28;20203;-71
2023/03/30 08:42:33;;;;;;;4.28;3.72;;;;;;;25.07;24.27;95634.81;5013527;28;20239;-71
2023/03/30 08:45:04;;;;;;;10.43;4.28;;;;;;;25.07;24.15;95637.41;5012208;28;20239;-70
2023/03/30 08:47:34;;;;;;;12.55;5.20;;;;;;;24.97;24.36;95645.16;5013839;28;20203;-65
2023/03/30 08:50:07;;;;;;;5.47;3.33;;;;;;;24.36;24.68;95644.00;5012580;28;20210;-66
2023/03/30 08:52:35;;;;;;;6.80;3.95;;;;;;;23.38;25.77;95635.91;5012532;28;20690;-68
2023/03/30 08:55:03;;;;;;;4.50;3.50;;;;;;;22.65;26.27;95636.09;5012768;28;20208;-69
2023/03/30 08:57:46;;;;;;;5.38;3.70;;;;;;;23.21;25.76;95632.94;5011023;28;20228;-69
2023/03/30 09:00:21;;;;;;;3.80;3.22;;;;;;;24.59;24.21;95626.56;5011252;28;20207;-65
2023/03/30 09:02:51;;;;;;;6.57;4.10;;;;;;;26.17;22.70;95625.56;5010826;28;20215;-67
2023/03/30 09:05:23;;;;;;;9.02;4.80;;;;;;;27.07;21.83;95621.88;5011465;28;20773;-68
2023/03/30 09:08:00;;;;;;;10.38;5.70;;;;;;;27.84;21.20;95617.47;5012482;28;20235;-71
2023/03/30 09:10:31;;;;;;;6.95;5.38;;;;;;;28.16;21.13;95607.44;5010599;28;20381;-69
2023/03/30 09:13:02;;;;;;;4.13;3.67;;;;;;;28.11;20.92;95612.28;5010983;28;20307;-69
2023/03/30 09:15:32;;;;;;;4.57;3.75;;;;;;;27.46;20.76;95611.38;5011342;28;20288;-64
2023/03/30 09:18:04;;;;;;;5.80;3.08;;;;;;;26.01;22.30;95611.22;5011741;28;20654;-68
2023/03/30 09:20:34;;;;;;;4.38;3.30;;;;;;;25.08;23.30;95616.47;5010856;28;20206;-65
2023/03/30 09:23:02;;;;;;;5.25;3.53;;;;;;;24.40;23.96;95612.47;5011167;28;20692;-66
2023/03/30 09:25:36;;;;;;;2.85;2.60;;;;;;;24.43;23.36;95603.59;5011465;28;20273;-71
2023/03/30 09:28:12;;;;;;;5.07;3.50;;;;;;;23.35;24.32;95611.97;5013542;28;20259;-68
2023/03/30 09:30:41;;;;;;;3.70;2.75;;;;;;;21.57;26.33;95610.03;5017275;28;20738;-71
2023/03/30 09:33:20;;;;;;;5.70;2.85;;;;;;;20.12;28.28;95597.19;5025925;28;20204;-69
2023/03/30 09:36:03;;;;;;;4.82;2.67;;;;;;;19.00;29.87;95608.22;5018999;28;20226;-67
2023/03/30 09:38:31;;;;;;;4.57;2.97;;;;;;;18.68;30.70;95602.34;5013064;28;20352;-70
2023/03/30 09:41:11;;;;;;;4.50;2.63;;;;;;;18.65;31.11;95600.75;5010870;28;20314;-65
2023/03/30 09:43:43;;;;;;;3.45;2.45;;;;;;;18.46;32.04;95609.59;5010943;28;20304;-66
2023/03/30 09:46:10;;;;;;;9.07;3.28;;;;;;;18.53;31.79;95600.59;5010875;28;20286;-70
2023/03/30 09:48:42;;;;;;;4.63;4.18;;;;;;;18.97;30.92;95593.78;5011894;28;20251;-69
2023/03/30 09:51:17;;;;;;;3.10;2.88;;;;;;;19.42;30.44;95591.97;5011142;28;20314;-68
2023/03/30 09:53:46;;;;;;;5.65;4.65;;;;;;;19.10;29.26;95572.44;5009805;28;20235;-68
2023/03/30 09:56:21;;;;;;;2.40;2.20;;;;;;;18.52;30.32;95596.38;5010415;28;20210;-70
2023/03/30 09:58:49;;;;;;;4.13;3.00;;;;;;;18.17;30.80;95590.59;5010460;28;20322;-69
2023/03/30 10:01:18;;;;;;;4.00;3.65;;;;;;;18.05;31.52;95592.13;5009879;28;20243;-68
2023/03/30 10:04:04;;;;;;;3.25;3.03;;;;;;;18.08;31.43;95586.78;5009986;28;20333;-72
2023/03/30 10:06:35;;;;;;;15.90;11.10;;;;;;;18.33;31.57;95584.50;4986066;28;20299;-67
2023/03/30 10:09:05;;;;;;;3.53;2.95;;;;;;;18.24;31.07;95581.63;4990720;28;20282;-66
2023/03/30 10:11:36;;;;;;;2.83;2.63;;;;;;;18.19;31.34;95583.63;5008711;28;20219;-68
2023/03/30 10:14:06;;;;;;;5.10;3.85;;;;;;;18.13;31.50;95579.66;5009111;28;20381;-71
2023/03/30 10:16:33;;;;;;;9.13;4.70;;;;;;;17.91;31.66;95579.16;5010034;28;20204;-71
2023/03/30 10:19:02;;;;;;;4.45;2.63;;;;;;;17.71;31.95;95581.97;5009100;28;20231;-72
2023/03/30 10:21:31;;;;;;;5.28;3.42;;;;;;;17.49;32.31;95572.81;5010586;28;20652;-72
2023/03/30 10:24:06;;;;;;;8.88;3.33;;;;;;;17.26;32.96;95566.28;5009179;28;20357;-69
2023/03/30 10:26:36;;;;;;;49.58;27.35;;;;;;;17.43;32.96;95570.53;5010052;28;20227;-68
2023/03/30 10:29:09;;;;;;;4.22;3.85;;;;;;;17.44;33.48;95564.50;5010348;28;20350;-68
2023/03/30 10:31:38;;;;;;;2.35;2.17;;;;;;;17.50;32.72;95558.22;5009346;28;20646;-67
2023/03/30 10:34:14;;;;;;;2.95;2.63;;;;;;;17.62;32.52;95552.41;5010603;28;20232;-69
2023/03/30 10:36:41;;;;;;;1.83;1.73;;;;;;;17.74;32.46;95553.53;5011554;28;20345;-68
2023/03/30 10:39:12;;;;;;;2.65;2.45;;;;;;;17.97;32.06;95553.13;5010167;28;20231;-71
2023/03/30 10:41:41;;;;;;;2.17;1.98;;;;;;;18.24;31.48;95537.91;5010935;28;20295;-71
2023/03/30 10:44:22;;;;;;;4.60;3.50;;;;;;;18.53;30.87;95546.56;5010458;28;20274;-69
2023/03/30 10:46:52;;;;;;;4.60;3.78;;;;;;;18.42;30.98;95536.03;5009718;28;20685;-69
2023/03/30 10:49:28;;;;;;;3.92;2.25;;;;;;;18.28;31.25;95542.78;5011176;28;20361;-66
2023/03/30 10:52:03;;;;;;;2.63;2.42;;;;;;;18.13;31.53;95535.09;5009238;28;20911;-70
2023/03/30 10:54:37;;;;;;;4.80;2.45;;;;;;;17.99;31.78;95515.28;5009980;28;20308;-73
2023/03/30 10:57:11;;;;;;;3.10;2.30;;;;;;;18.19;31.76;95532.19;5009947;28;20296;-72
2023/03/30 10:59:53;;;;;;;7.47;2.67;;;;;;;18.11;31.62;95530.03;5009841;28;20236;-75
2023/03/30 11:02:34;;;;;;;2.42;2.33;;;;;;;18.05;31.55;95525.25;5010824;28;20200;-74
2023/03/30 11:05:06;;;;;;;3.20;2.30;;;;;;;17.99;31.83;95520.44;5010005;28;20239;-70
2023/03/30 11:07:40;;;;;;;2.40;2.17;;;;;;;18.03;31.38;95516.78;5010674;28;20218;-69
2023/03/30 11:10:15;;;;;;;3.40;1.63;;;;;;;18.10;31.52;95518.06;5009416;28;20558;-69
2023/03/30 11:12:46;;;;;;;4.18;2.22;;;;;;;18.08;31.66;95514.75;5009563;28;20667;-71
2023/03/30 11:15:19;;;;;;;4.32;3.92;;;;;;;18.25;31.72;95506.13;5010449;28;20721;-69
2023/03/30 11:17:55;;;;;;;3.03;2.83;;;;;;;18.30;31.26;95504.13;5008875;28;20257;-67
2023/03/30 11:20:27;;;;;;;3.10;2.80;;;;;;;18.28;31.22;95504.22;5009609;28;20302;-72
2023/03/30 11:23:03;;;;;;;1.85;1.75;;;;;;;18.41;31.04;95495.78;5009767;28;20201;-72
2023/03/30 11:25:34;;;;;;;2.33;1.85;;;;;;;18.29;30.89;95493.00;5009836;28;20215;-71
2023/03/30 11:28:11;;;;;;;2.30;2.10;;;;;;;17.64;31.35;95500.03;5009411;28;20791;-70
2023/03/30 11:30:41;;;;;;;2.15;1.98;;;;;;;17.32;32.20;95501.72;5007090;28;20293;-71
2023/03/30 11:33:17;;;;;;;2.95;1.98;;;;;;;17.12;32.53;95490.84;5008748;28;20230;-71
2023/03/30 11:35:47;;;;;;;2.33;2.17;;;;;;;16.84;33.12;95487.13;5007996;28;20288;-69
2023/03/30 11:38:19;;;;;;;2.35;1.70;;;;;;;16.64;33.29;95484.75;5009572;28;20235;-68
2023/03/30 11:40:47;;;;;;;6.30;2.40;;;;;;;16.19;33.93;95467.34;5008925;28;20269;-68
2023/03/30 11:43:17;;;;;;;4.20;3.28;;;;;;;16.13;34.02;95481.28;5009446;28;20697;-72
2023/03/30 11:46:01;;;;;;;2.38;2.08;;;;;;;16.07;34.24;95473.06;5009456;28;20614;-71
2023/03/30 11:48:54;;;;;;;1.92;1.83;;;;;;;16.06;34.43;95476.53;5008995;28;20203;-72
2023/03/30 11:51:37;;;;;;;2.60;2.35;;;;;;;15.91;34.65;95468.66;5003578;28;21002;-69